ニジネヴァルトフスク の空港の天気 - METARとTAF

Nizhnevartovsk ( USNN / NJC ) - ロシア ニジネヴァルトフスク
飛行場実況気象(Metar)
観測時間08/22 21:30 YEKT (08/22 16:30 UTC)
風向・風速西北西 2m/s
視程9000m
天気現象
なし
気温15℃
湿度82%
気圧1013hPa
METARUSNN 221630Z 30002MPS 9000 NSC 15/12 Q1013 R03/0///65 NOSIG RMK QFE756
過去の天気等 Google飛行場航空写真 Wunderground天気予報

過去48時間のMETAR

飛行場予報(TAF)
発表時間: 8/22 19:00 YEKT (8/22 14:00 UTC)
予報対象時間: 22日20時 YEKT ~ 23日20時 YEKT
風向・風速西北西 3m/s
視程10km以上
全天の4割程度の雲 雲底高度 910m
22日20時 YEKT ~ 22日23時 YEKT に一時的に
視程4000m
天気現象弱いしゅう雨
全天の4割程度の積乱雲 雲底高度 460m
22日23時 YEKT ~ 23日8時 YEKT に一時的に
風向・風速不定 1m/s
視程200m
天気現象
全天を覆う雲 鉛直視程 60m
TAF USNN 221400Z 2215/2315 30003MPS 9999 SCT030
TEMPO 2215/2218 4000 -SHRA SCT015CB
TEMPO 2218/2303 VRB01MPS 0200 FG VV002